sensor_id;sensor_type;location;lat;lon;timestamp;pressure;altitude;pressure_sealevel;temperature;humidity
57827;BME280;43656;57.746;11.780;2023-04-16T00:01:47;102136.13;;;11.46;71.24
57827;BME280;43656;57.746;11.780;2023-04-16T00:04:13;102146.50;;;11.65;70.78
57827;BME280;43656;57.746;11.780;2023-04-16T00:06:38;102155.75;;;11.87;69.84
57827;BME280;43656;57.746;11.780;2023-04-16T00:09:03;102154.53;;;11.82;70.04
57827;BME280;43656;57.746;11.780;2023-04-16T00:11:29;102150.22;;;11.64;70.67
57827;BME280;43656;57.746;11.780;2023-04-16T00:13:54;102150.56;;;11.69;70.23
57827;BME280;43656;57.746;11.780;2023-04-16T00:16:20;102155.94;;;11.86;69.84
57827;BME280;43656;57.746;11.780;2023-04-16T00:18:45;102146.69;;;11.64;70.36
57827;BME280;43656;57.746;11.780;2023-04-16T00:21:11;102150.69;;;11.76;70.22
57827;BME280;43656;57.746;11.780;2023-04-16T00:23:36;102157.97;;;11.75;70.14
57827;BME280;43656;57.746;11.780;2023-04-16T00:26:02;102148.34;;;11.73;70.32
57827;BME280;43656;57.746;11.780;2023-04-16T00:28:28;102156.44;;;11.65;70.45
57827;BME280;43656;57.746;11.780;2023-04-16T00:30:54;102155.94;;;11.69;70.24
57827;BME280;43656;57.746;11.780;2023-04-16T00:33:20;102145.84;;;11.55;70.88
57827;BME280;43656;57.746;11.780;2023-04-16T00:35:46;102149.56;;;11.54;70.99
57827;BME280;43656;57.746;11.780;2023-04-16T00:38:12;102137.81;;;11.39;71.37
57827;BME280;43656;57.746;11.780;2023-04-16T00:40:38;102149.13;;;11.18;72.46
57827;BME280;43656;57.746;11.780;2023-04-16T00:43:03;102154.97;;;11.54;71.17
57827;BME280;43656;57.746;11.780;2023-04-16T00:45:29;102158.53;;;11.38;71.68
57827;BME280;43656;57.746;11.780;2023-04-16T00:47:55;102157.22;;;11.26;72.60
57827;BME280;43656;57.746;11.780;2023-04-16T00:50:21;102145.59;;;11.34;72.37
57827;BME280;43656;57.746;11.780;2023-04-16T00:52:47;102135.88;;;11.00;73.34
57827;BME280;43656;57.746;11.780;2023-04-16T00:55:14;102153.66;;;11.25;72.75
57827;BME280;43656;57.746;11.780;2023-04-16T00:57:39;102162.81;;;11.00;73.45
57827;BME280;43656;57.746;11.780;2023-04-16T01:00:05;102165.47;;;11.08;73.39
57827;BME280;43656;57.746;11.780;2023-04-16T01:02:32;102166.47;;;11.23;72.59
57827;BME280;43656;57.746;11.780;2023-04-16T01:04:59;102162.22;;;11.45;71.24
57827;BME280;43656;57.746;11.780;2023-04-16T01:07:25;102154.88;;;11.23;71.72
57827;BME280;43656;57.746;11.780;2023-04-16T01:09:50;102158.56;;;11.05;72.70
57827;BME280;43656;57.746;11.780;2023-04-16T01:12:16;102171.88;;;11.15;72.44
57827;BME280;43656;57.746;11.780;2023-04-16T01:14:41;102168.69;;;11.20;72.23
57827;BME280;43656;57.746;11.780;2023-04-16T01:17:06;102165.66;;;10.98;72.44
57827;BME280;43656;57.746;11.780;2023-04-16T01:19:32;102175.91;;;11.11;72.22
57827;BME280;43656;57.746;11.780;2023-04-16T01:22:01;102174.56;;;11.15;71.87
57827;BME280;43656;57.746;11.780;2023-04-16T01:24:27;102181.81;;;11.23;71.27
57827;BME280;43656;57.746;11.780;2023-04-16T01:26:52;102149.13;;;11.34;70.07
57827;BME280;43656;57.746;11.780;2023-04-16T01:29:17;102171.34;;;11.36;70.43
57827;BME280;43656;57.746;11.780;2023-04-16T01:31:43;102156.75;;;10.90;72.13
57827;BME280;43656;57.746;11.780;2023-04-16T01:34:10;102180.13;;;11.14;71.70
57827;BME280;43656;57.746;11.780;2023-04-16T01:36:36;102177.41;;;11.22;70.84
57827;BME280;43656;57.746;11.780;2023-04-16T01:39:01;102175.56;;;11.22;70.73
57827;BME280;43656;57.746;11.780;2023-04-16T01:41:27;102179.63;;;11.10;71.53
57827;BME280;43656;57.746;11.780;2023-04-16T01:43:52;102180.63;;;11.01;71.62
57827;BME280;43656;57.746;11.780;2023-04-16T01:46:23;102174.91;;;11.12;71.30
57827;BME280;43656;57.746;11.780;2023-04-16T01:48:51;102176.25;;;11.00;71.02
57827;BME280;43656;57.746;11.780;2023-04-16T01:51:19;102193.41;;;10.99;71.75
57827;BME280;43656;57.746;11.780;2023-04-16T01:53:44;102183.66;;;10.81;72.01
57827;BME280;43656;57.746;11.780;2023-04-16T01:56:09;102179.78;;;11.00;70.77
57827;BME280;43656;57.746;11.780;2023-04-16T01:58:35;102189.03;;;10.73;72.04
57827;BME280;43656;57.746;11.780;2023-04-16T02:01:00;102193.03;;;10.61;72.73
57827;BME280;43656;57.746;11.780;2023-04-16T02:03:26;102173.69;;;10.57;72.36
57827;BME280;43656;57.746;11.780;2023-04-16T02:05:51;102191.38;;;10.68;72.39
57827;BME280;43656;57.746;11.780;2023-04-16T02:08:17;102185.66;;;10.63;72.41
57827;BME280;43656;57.746;11.780;2023-04-16T02:10:45;102171.66;;;10.51;72.57
57827;BME280;43656;57.746;11.780;2023-04-16T02:13:11;102189.66;;;10.51;72.93
57827;BME280;43656;57.746;11.780;2023-04-16T02:15:37;102187.31;;;10.56;72.41
57827;BME280;43656;57.746;11.780;2023-04-16T02:18:02;102185.91;;;10.35;72.49
57827;BME280;43656;57.746;11.780;2023-04-16T02:20:27;102187.47;;;10.63;72.14
57827;BME280;43656;57.746;11.780;2023-04-16T02:22:53;102191.56;;;10.75;70.86
57827;BME280;43656;57.746;11.780;2023-04-16T02:25:18;102187.66;;;10.53;71.65
57827;BME280;43656;57.746;11.780;2023-04-16T02:27:44;102172.81;;;10.41;71.28
57827;BME280;43656;57.746;11.780;2023-04-16T02:30:09;102186.97;;;10.59;70.81
57827;BME280;43656;57.746;11.780;2023-04-16T02:32:35;102178.84;;;10.34;71.57
57827;BME280;43656;57.746;11.780;2023-04-16T02:35:00;102191.38;;;10.68;70.38
57827;BME280;43656;57.746;11.780;2023-04-16T02:37:28;102185.84;;;10.70;70.23
57827;BME280;43656;57.746;11.780;2023-04-16T02:39:53;102193.03;;;10.69;69.74
57827;BME280;43656;57.746;11.780;2023-04-16T02:42:19;102185.47;;;10.56;69.96
57827;BME280;43656;57.746;11.780;2023-04-16T02:44:44;102190.03;;;10.64;69.75
57827;BME280;43656;57.746;11.780;2023-04-16T02:47:10;102181.13;;;10.64;69.31
57827;BME280;43656;57.746;11.780;2023-04-16T02:49:35;102189.69;;;10.67;69.36
57827;BME280;43656;57.746;11.780;2023-04-16T02:52:00;102193.03;;;10.69;69.35
57827;BME280;43656;57.746;11.780;2023-04-16T02:54:26;102175.84;;;10.38;69.62
57827;BME280;43656;57.746;11.780;2023-04-16T02:56:51;102193.34;;;10.42;70.27
57827;BME280;43656;57.746;11.780;2023-04-16T02:59:17;102201.03;;;10.28;70.06
57827;BME280;43656;57.746;11.780;2023-04-16T03:01:42;102200.38;;;10.43;69.75
57827;BME280;43656;57.746;11.780;2023-04-16T03:04:07;102198.03;;;10.40;69.29
57827;BME280;43656;57.746;11.780;2023-04-16T03:06:33;102196.00;;;10.33;69.37
57827;BME280;43656;57.746;11.780;2023-04-16T03:08:58;102190.38;;;10.19;69.39
57827;BME280;43656;57.746;11.780;2023-04-16T03:11:24;102196.13;;;9.89;70.46
57827;BME280;43656;57.746;11.780;2023-04-16T03:13:49;102187.16;;;10.07;69.86
57827;BME280;43656;57.746;11.780;2023-04-16T03:16:15;102185.56;;;9.96;69.65
57827;BME280;43656;57.746;11.780;2023-04-16T03:18:40;102191.13;;;10.03;69.14
57827;BME280;43656;57.746;11.780;2023-04-16T03:21:05;102193.09;;;9.84;69.37
57827;BME280;43656;57.746;11.780;2023-04-16T03:23:31;102190.81;;;9.98;69.25
57827;BME280;43656;57.746;11.780;2023-04-16T03:25:56;102169.16;;;9.73;69.09
57827;BME280;43656;57.746;11.780;2023-04-16T03:28:22;102189.19;;;9.53;70.28
57827;BME280;43656;57.746;11.780;2023-04-16T03:30:53;102191.56;;;9.56;70.01
57827;BME280;43656;57.746;11.780;2023-04-16T03:33:19;102181.19;;;9.61;69.46
57827;BME280;43656;57.746;11.780;2023-04-16T03:35:45;102161.28;;;9.46;69.65
57827;BME280;43656;57.746;11.780;2023-04-16T03:38:10;102192.28;;;9.66;69.00
57827;BME280;43656;57.746;11.780;2023-04-16T03:40:36;102199.38;;;9.67;68.86
57827;BME280;43656;57.746;11.780;2023-04-16T03:43:01;102177.09;;;9.83;67.73
57827;BME280;43656;57.746;11.780;2023-04-16T03:45:27;102194.19;;;10.08;67.06
57827;BME280;43656;57.746;11.780;2023-04-16T03:47:52;102197.97;;;10.23;66.24
57827;BME280;43656;57.746;11.780;2023-04-16T03:50:18;102184.91;;;9.94;66.64
57827;BME280;43656;57.746;11.780;2023-04-16T03:52:44;102208.59;;;9.99;67.16
57827;BME280;43656;57.746;11.780;2023-04-16T03:55:11;102207.34;;;10.19;66.42
57827;BME280;43656;57.746;11.780;2023-04-16T03:57:37;102209.06;;;10.20;65.98
57827;BME280;43656;57.746;11.780;2023-04-16T04:00:02;102212.09;;;10.25;66.29
57827;BME280;43656;57.746;11.780;2023-04-16T04:02:28;102209.09;;;10.28;65.60
57827;BME280;43656;57.746;11.780;2023-04-16T04:04:54;102206.94;;;10.32;65.42
57827;BME280;43656;57.746;11.780;2023-04-16T04:07:19;102204.72;;;10.27;64.95
57827;BME280;43656;57.746;11.780;2023-04-16T04:09:45;102202.97;;;10.10;65.54
57827;BME280;43656;57.746;11.780;2023-04-16T04:12:10;102208.25;;;9.94;66.57
57827;BME280;43656;57.746;11.780;2023-04-16T04:14:35;102187.78;;;10.01;65.56
57827;BME280;43656;57.746;11.780;2023-04-16T04:17:04;102213.97;;;9.99;66.08
57827;BME280;43656;57.746;11.780;2023-04-16T04:19:29;102206.63;;;10.01;65.94
57827;BME280;43656;57.746;11.780;2023-04-16T04:21:55;102212.25;;;9.89;66.01
57827;BME280;43656;57.746;11.780;2023-04-16T04:24:20;102205.81;;;9.74;66.99
57827;BME280;43656;57.746;11.780;2023-04-16T04:26:46;102215.00;;;9.98;66.02
57827;BME280;43656;57.746;11.780;2023-04-16T04:29:12;102205.84;;;9.82;66.13
57827;BME280;43656;57.746;11.780;2023-04-16T04:31:37;102214.28;;;9.87;66.41
57827;BME280;43656;57.746;11.780;2023-04-16T04:34:03;102210.56;;;9.88;66.08
57827;BME280;43656;57.746;11.780;2023-04-16T04:36:28;102220.19;;;9.91;65.42
57827;BME280;43656;57.746;11.780;2023-04-16T04:38:54;102200.59;;;10.07;65.34
57827;BME280;43656;57.746;11.780;2023-04-16T04:41:19;102212.75;;;9.85;65.69
57827;BME280;43656;57.746;11.780;2023-04-16T04:43:45;102208.66;;;10.07;65.42
57827;BME280;43656;57.746;11.780;2023-04-16T04:46:11;102199.09;;;10.12;64.61
57827;BME280;43656;57.746;11.780;2023-04-16T04:48:36;102209.88;;;10.21;64.34
57827;BME280;43656;57.746;11.780;2023-04-16T04:51:02;102200.09;;;10.11;64.03
57827;BME280;43656;57.746;11.780;2023-04-16T04:53:28;102221.16;;;10.24;64.13
57827;BME280;43656;57.746;11.780;2023-04-16T04:55:54;102222.41;;;10.38;64.07
57827;BME280;43656;57.746;11.780;2023-04-16T04:58:19;102220.63;;;10.47;63.55
57827;BME280;43656;57.746;11.780;2023-04-16T05:00:45;102215.50;;;10.27;63.31
57827;BME280;43656;57.746;11.780;2023-04-16T05:03:11;102219.72;;;10.38;63.20
57827;BME280;43656;57.746;11.780;2023-04-16T05:05:39;102225.94;;;10.39;63.42
57827;BME280;43656;57.746;11.780;2023-04-16T05:08:05;102227.66;;;10.48;63.08
57827;BME280;43656;57.746;11.780;2023-04-16T05:10:31;102218.44;;;10.50;62.71
57827;BME280;43656;57.746;11.780;2023-04-16T05:12:56;102230.91;;;10.60;62.24
57827;BME280;43656;57.746;11.780;2023-04-16T05:15:22;102228.97;;;10.35;62.88
57827;BME280;43656;57.746;11.780;2023-04-16T05:17:47;102223.94;;;10.41;62.98
57827;BME280;43656;57.746;11.780;2023-04-16T05:20:13;102189.72;;;10.25;62.91
57827;BME280;43656;57.746;11.780;2023-04-16T05:22:38;102223.59;;;10.35;63.07
57827;BME280;43656;57.746;11.780;2023-04-16T05:25:04;102228.69;;;10.47;62.66
57827;BME280;43656;57.746;11.780;2023-04-16T05:27:29;102236.09;;;10.53;62.11
57827;BME280;43656;57.746;11.780;2023-04-16T05:29:55;102216.19;;;10.38;62.23
57827;BME280;43656;57.746;11.780;2023-04-16T05:32:20;102237.09;;;10.44;62.05
57827;BME280;43656;57.746;11.780;2023-04-16T05:34:46;102233.88;;;10.48;62.30
57827;BME280;43656;57.746;11.780;2023-04-16T05:37:11;102233.94;;;10.56;62.16
57827;BME280;43656;57.746;11.780;2023-04-16T05:39:36;102233.94;;;10.65;61.73
57827;BME280;43656;57.746;11.780;2023-04-16T05:42:02;102233.00;;;10.40;62.61
57827;BME280;43656;57.746;11.780;2023-04-16T05:44:27;102241.13;;;10.48;61.58
57827;BME280;43656;57.746;11.780;2023-04-16T05:46:53;102245.22;;;10.60;61.10
57827;BME280;43656;57.746;11.780;2023-04-16T05:49:18;102240.88;;;10.33;61.98
57827;BME280;43656;57.746;11.780;2023-04-16T05:51:44;102239.78;;;10.52;61.34
57827;BME280;43656;57.746;11.780;2023-04-16T05:54:10;102241.91;;;10.06;61.77
57827;BME280;43656;57.746;11.780;2023-04-16T05:56:35;102235.66;;;9.97;62.50
57827;BME280;43656;57.746;11.780;2023-04-16T05:59:00;102246.72;;;10.20;62.31
57827;BME280;43656;57.746;11.780;2023-04-16T06:01:26;102219.88;;;10.28;61.43
57827;BME280;43656;57.746;11.780;2023-04-16T06:03:51;102243.16;;;10.20;60.84
57827;BME280;43656;57.746;11.780;2023-04-16T06:06:16;102249.59;;;10.69;60.70
57827;BME280;43656;57.746;11.780;2023-04-16T06:08:42;102241.06;;;10.40;60.77
57827;BME280;43656;57.746;11.780;2023-04-16T06:11:07;102253.50;;;10.32;61.63
57827;BME280;43656;57.746;11.780;2023-04-16T06:13:33;102249.03;;;10.15;61.60
57827;BME280;43656;57.746;11.780;2023-04-16T06:15:58;102248.63;;;10.28;60.39
57827;BME280;43656;57.746;11.780;2023-04-16T06:18:24;102255.66;;;10.63;60.18
57827;BME280;43656;57.746;11.780;2023-04-16T06:20:49;102251.19;;;10.46;59.88
57827;BME280;43656;57.746;11.780;2023-04-16T06:23:14;102229.47;;;10.39;60.20
57827;BME280;43656;57.746;11.780;2023-04-16T06:25:40;102251.31;;;10.36;60.54
57827;BME280;43656;57.746;11.780;2023-04-16T06:28:05;102259.56;;;10.34;60.59
57827;BME280;43656;57.746;11.780;2023-04-16T06:30:31;102260.00;;;10.64;59.46
57827;BME280;43656;57.746;11.780;2023-04-16T06:32:56;102266.47;;;10.96;59.20
57827;BME280;43656;57.746;11.780;2023-04-16T06:35:22;102245.94;;;10.87;58.51
57827;BME280;43656;57.746;11.780;2023-04-16T06:37:47;102267.13;;;10.73;58.72
57827;BME280;43656;57.746;11.780;2023-04-16T06:40:13;102266.59;;;10.70;58.95
57827;BME280;43656;57.746;11.780;2023-04-16T06:42:38;102262.91;;;10.79;58.89
57827;BME280;43656;57.746;11.780;2023-04-16T06:45:04;102267.06;;;10.65;59.15
57827;BME280;43656;57.746;11.780;2023-04-16T06:47:30;102252.91;;;10.55;59.66
57827;BME280;43656;57.746;11.780;2023-04-16T06:49:55;102262.59;;;10.40;59.77
57827;BME280;43656;57.746;11.780;2023-04-16T06:52:21;102241.31;;;10.63;59.10
57827;BME280;43656;57.746;11.780;2023-04-16T06:54:47;102251.38;;;10.52;58.94
57827;BME280;43656;57.746;11.780;2023-04-16T06:57:12;102270.28;;;10.61;59.46
57827;BME280;43656;57.746;11.780;2023-04-16T06:59:37;102276.19;;;10.72;59.11
57827;BME280;43656;57.746;11.780;2023-04-16T07:02:03;102278.75;;;10.98;58.93
57827;BME280;43656;57.746;11.780;2023-04-16T07:04:29;102250.31;;;10.79;59.13
57827;BME280;43656;57.746;11.780;2023-04-16T07:06:54;102279.09;;;10.95;58.42
57827;BME280;43656;57.746;11.780;2023-04-16T07:09:20;102281.47;;;10.98;58.42
57827;BME280;43656;57.746;11.780;2023-04-16T07:11:45;102283.00;;;11.17;57.68
57827;BME280;43656;57.746;11.780;2023-04-16T07:14:11;102285.16;;;11.05;57.26
57827;BME280;43656;57.746;11.780;2023-04-16T07:16:36;102280.81;;;11.21;57.53
57827;BME280;43656;57.746;11.780;2023-04-16T07:19:02;102278.97;;;11.21;57.69
57827;BME280;43656;57.746;11.780;2023-04-16T07:21:27;102282.47;;;11.05;57.18
57827;BME280;43656;57.746;11.780;2023-04-16T07:23:53;102280.81;;;11.04;57.33
57827;BME280;43656;57.746;11.780;2023-04-16T07:26:18;102284.34;;;11.05;57.45
57827;BME280;43656;57.746;11.780;2023-04-16T07:28:44;102280.66;;;11.14;57.63
57827;BME280;43656;57.746;11.780;2023-04-16T07:31:09;102280.13;;;11.02;57.38
57827;BME280;43656;57.746;11.780;2023-04-16T07:33:35;102282.50;;;11.38;56.76
57827;BME280;43656;57.746;11.780;2023-04-16T07:36:00;102286.06;;;11.31;57.00
57827;BME280;43656;57.746;11.780;2023-04-16T07:38:26;102285.03;;;11.48;57.08
57827;BME280;43656;57.746;11.780;2023-04-16T07:40:51;102257.75;;;11.35;56.97
57827;BME280;43656;57.746;11.780;2023-04-16T07:43:17;102282.00;;;11.75;56.94
57827;BME280;43656;57.746;11.780;2023-04-16T07:45:42;102293.63;;;11.60;57.49
57827;BME280;43656;57.746;11.780;2023-04-16T07:48:07;102290.41;;;11.64;57.35
57827;BME280;43656;57.746;11.780;2023-04-16T07:50:33;102293.63;;;11.76;57.33
57827;BME280;43656;57.746;11.780;2023-04-16T07:52:58;102287.38;;;12.00;56.99
57827;BME280;43656;57.746;11.780;2023-04-16T07:55:23;102287.56;;;11.90;56.71
57827;BME280;43656;57.746;11.780;2023-04-16T07:57:49;102272.38;;;11.81;57.03
57827;BME280;43656;57.746;11.780;2023-04-16T08:00:15;102295.78;;;12.05;57.09
57827;BME280;43656;57.746;11.780;2023-04-16T08:02:40;102293.28;;;11.95;56.91
57827;BME280;43656;57.746;11.780;2023-04-16T08:05:06;102302.19;;;12.04;56.31
57827;BME280;43656;57.746;11.780;2023-04-16T08:07:32;102298.97;;;12.25;56.30
57827;BME280;43656;57.746;11.780;2023-04-16T08:09:57;102303.09;;;12.44;55.78
57827;BME280;43656;57.746;11.780;2023-04-16T08:12:22;102299.91;;;12.40;55.76
57827;BME280;43656;57.746;11.780;2023-04-16T08:14:48;102284.88;;;12.38;55.38
57827;BME280;43656;57.746;11.780;2023-04-16T08:17:14;102311.72;;;12.79;54.80
57827;BME280;43656;57.746;11.780;2023-04-16T08:19:39;102306.41;;;13.16;54.65
57827;BME280;43656;57.746;11.780;2023-04-16T08:22:05;102314.34;;;13.18;54.47
57827;BME280;43656;57.746;11.780;2023-04-16T08:24:30;102314.50;;;12.93;54.50
57827;BME280;43656;57.746;11.780;2023-04-16T08:26:56;102319.84;;;12.70;55.16
57827;BME280;43656;57.746;11.780;2023-04-16T08:29:21;102319.97;;;12.38;55.92
57827;BME280;43656;57.746;11.780;2023-04-16T08:31:50;102326.28;;;12.61;56.04
57827;BME280;43656;57.746;11.780;2023-04-16T08:34:16;102321.16;;;12.75;55.58
57827;BME280;43656;57.746;11.780;2023-04-16T08:36:41;102327.50;;;12.98;55.32
57827;BME280;43656;57.746;11.780;2023-04-16T08:39:06;102332.28;;;13.11;55.06
57827;BME280;43656;57.746;11.780;2023-04-16T08:41:33;102323.66;;;13.15;55.08
57827;BME280;43656;57.746;11.780;2023-04-16T08:44:06;102310.59;;;12.96;56.18
57827;BME280;43656;57.746;11.780;2023-04-16T08:46:35;102331.28;;;13.12;56.85
57827;BME280;43656;57.746;11.780;2023-04-16T08:49:06;102312.59;;;13.02;56.30
57827;BME280;43656;57.746;11.780;2023-04-16T08:51:35;102336.00;;;13.10;55.72
57827;BME280;43656;57.746;11.780;2023-04-16T08:54:04;102340.28;;;13.35;55.21
57827;BME280;43656;57.746;11.780;2023-04-16T08:56:34;102337.25;;;13.30;55.91
57827;BME280;43656;57.746;11.780;2023-04-16T08:59:01;102338.09;;;13.31;56.38
57827;BME280;43656;57.746;11.780;2023-04-16T09:01:31;102341.53;;;13.16;56.92
57827;BME280;43656;57.746;11.780;2023-04-16T09:03:57;102325.41;;;13.08;57.34
57827;BME280;43656;57.746;11.780;2023-04-16T09:06:23;102331.81;;;13.07;57.18
57827;BME280;43656;57.746;11.780;2023-04-16T09:08:48;102346.94;;;13.16;57.34
57827;BME280;43656;57.746;11.780;2023-04-16T09:11:17;102342.31;;;13.33;56.67
57827;BME280;43656;57.746;11.780;2023-04-16T09:13:45;102345.84;;;13.34;57.01
57827;BME280;43656;57.746;11.780;2023-04-16T09:16:11;102351.81;;;13.29;57.40
57827;BME280;43656;57.746;11.780;2023-04-16T09:18:37;102345.75;;;13.19;57.25
57827;BME280;43656;57.746;11.780;2023-04-16T09:21:02;102351.75;;;13.06;57.13
57827;BME280;43656;57.746;11.780;2023-04-16T09:23:29;102345.78;;;13.11;57.29
57827;BME280;43656;57.746;11.780;2023-04-16T09:25:57;102352.16;;;12.95;57.52
57827;BME280;43656;57.746;11.780;2023-04-16T09:31:23;102351.06;;;13.04;57.75
57827;BME280;43656;57.746;11.780;2023-04-16T09:34:05;102345.09;;;12.86;57.83
57827;BME280;43656;57.746;11.780;2023-04-16T09:36:32;102340.53;;;12.86;57.77
57827;BME280;43656;57.746;11.780;2023-04-16T09:38:58;102356.53;;;12.96;57.63
57827;BME280;43656;57.746;11.780;2023-04-16T09:41:29;102356.81;;;13.01;57.83
57827;BME280;43656;57.746;11.780;2023-04-16T09:43:58;102360.09;;;13.28;56.97
57827;BME280;43656;57.746;11.780;2023-04-16T09:46:29;102350.25;;;13.35;56.98
57827;BME280;43656;57.746;11.780;2023-04-16T09:48:55;102358.66;;;13.40;56.88
57827;BME280;43656;57.746;11.780;2023-04-16T09:51:20;102356.84;;;13.32;56.07
57827;BME280;43656;57.746;11.780;2023-04-16T09:53:46;102368.84;;;13.61;55.73
57827;BME280;43656;57.746;11.780;2023-04-16T09:56:11;102360.16;;;13.43;55.63
57827;BME280;43656;57.746;11.780;2023-04-16T09:58:37;102363.72;;;13.43;54.86
57827;BME280;43656;57.746;11.780;2023-04-16T10:01:10;102369.31;;;13.42;55.26
57827;BME280;43656;57.746;11.780;2023-04-16T10:03:38;102361.66;;;13.68;55.04
57827;BME280;43656;57.746;11.780;2023-04-16T10:06:13;102366.59;;;13.65;55.15
57827;BME280;43656;57.746;11.780;2023-04-16T10:08:43;102362.63;;;13.75;54.79
57827;BME280;43656;57.746;11.780;2023-04-16T10:11:10;102363.91;;;13.65;54.83
57827;BME280;43656;57.746;11.780;2023-04-16T10:13:35;102362.88;;;13.66;55.55
57827;BME280;43656;57.746;11.780;2023-04-16T10:16:02;102365.72;;;13.87;54.37
57827;BME280;43656;57.746;11.780;2023-04-16T10:18:28;102361.13;;;13.73;54.20
57827;BME280;43656;57.746;11.780;2023-04-16T10:20:53;102363.88;;;13.88;53.72
57827;BME280;43656;57.746;11.780;2023-04-16T10:23:20;102365.19;;;13.92;53.42
57827;BME280;43656;57.746;11.780;2023-04-16T10:25:50;102367.22;;;13.90;53.35
57827;BME280;43656;57.746;11.780;2023-04-16T10:28:16;102359.81;;;13.83;52.82
57827;BME280;43656;57.746;11.780;2023-04-16T10:30:44;102359.41;;;14.09;51.98
57827;BME280;43656;57.746;11.780;2023-04-16T10:33:18;102368.69;;;14.15;51.34
57827;BME280;43656;57.746;11.780;2023-04-16T10:35:44;102364.19;;;14.07;50.96
57827;BME280;43656;57.746;11.780;2023-04-16T10:38:26;102364.16;;;13.93;49.96
57827;BME280;43656;57.746;11.780;2023-04-16T10:41:01;102361.22;;;14.17;50.66
57827;BME280;43656;57.746;11.780;2023-04-16T10:43:28;102356.66;;;14.18;50.52
57827;BME280;43656;57.746;11.780;2023-04-16T10:45:54;102354.41;;;14.36;50.13
57827;BME280;43656;57.746;11.780;2023-04-16T10:48:19;102367.19;;;14.42;50.41
57827;BME280;43656;57.746;11.780;2023-04-16T10:50:56;102361.22;;;14.32;49.39
57827;BME280;43656;57.746;11.780;2023-04-16T10:53:26;102361.44;;;14.60;50.06
57827;BME280;43656;57.746;11.780;2023-04-16T10:56:08;102322.38;;;14.25;49.54
57827;BME280;43656;57.746;11.780;2023-04-16T10:58:35;102359.59;;;14.61;49.48
57827;BME280;43656;57.746;11.780;2023-04-16T11:01:05;102358.81;;;14.37;48.78
57827;BME280;43656;57.746;11.780;2023-04-16T11:03:31;102358.06;;;14.88;48.36
57827;BME280;43656;57.746;11.780;2023-04-16T11:06:22;102363.47;;;14.88;46.89
57827;BME280;43656;57.746;11.780;2023-04-16T11:08:50;102349.41;;;14.99;47.77
57827;BME280;43656;57.746;11.780;2023-04-16T11:11:17;102342.34;;;15.19;46.89
57827;BME280;43656;57.746;11.780;2023-04-16T11:13:43;102356.31;;;15.38;46.63
57827;BME280;43656;57.746;11.780;2023-04-16T11:16:15;102358.19;;;15.37;45.54
57827;BME280;43656;57.746;11.780;2023-04-16T11:18:41;102361.44;;;15.47;45.66
57827;BME280;43656;57.746;11.780;2023-04-16T11:21:10;102368.25;;;15.65;45.41
57827;BME280;43656;57.746;11.780;2023-04-16T11:23:48;102349.91;;;15.88;45.47
57827;BME280;43656;57.746;11.780;2023-04-16T11:26:26;102358.59;;;16.05;45.02
57827;BME280;43656;57.746;11.780;2023-04-16T11:28:53;102356.69;;;15.56;44.97
57827;BME280;43656;57.746;11.780;2023-04-16T11:31:20;102352.31;;;15.55;44.99
57827;BME280;43656;57.746;11.780;2023-04-16T11:33:45;102356.25;;;15.52;45.08
57827;BME280;43656;57.746;11.780;2023-04-16T11:36:11;102343.00;;;15.86;45.02
57827;BME280;43656;57.746;11.780;2023-04-16T11:38:37;102348.41;;;16.07;44.38
57827;BME280;43656;57.746;11.780;2023-04-16T11:41:05;102348.63;;;16.40;44.00
57827;BME280;43656;57.746;11.780;2023-04-16T11:43:31;102336.66;;;16.70;43.60
57827;BME280;43656;57.746;11.780;2023-04-16T11:45:59;102339.41;;;16.41;44.06
57827;BME280;43656;57.746;11.780;2023-04-16T11:48:25;102333.97;;;16.76;43.47
57827;BME280;43656;57.746;11.780;2023-04-16T11:50:55;102338.75;;;16.74;42.77
57827;BME280;43656;57.746;11.780;2023-04-16T11:53:21;102336.69;;;16.76;43.03
57827;BME280;43656;57.746;11.780;2023-04-16T11:55:46;102343.66;;;16.51;42.75
57827;BME280;43656;57.746;11.780;2023-04-16T11:58:12;102337.44;;;16.63;42.80
57827;BME280;43656;57.746;11.780;2023-04-16T12:00:40;102333.97;;;16.76;42.33
57827;BME280;43656;57.746;11.780;2023-04-16T12:03:06;102336.72;;;16.83;41.92
57827;BME280;43656;57.746;11.780;2023-04-16T12:05:37;102337.59;;;16.90;42.00
57827;BME280;43656;57.746;11.780;2023-04-16T12:08:04;102336.72;;;16.83;41.96
57827;BME280;43656;57.746;11.780;2023-04-16T12:10:35;102343.06;;;17.03;42.02
57827;BME280;43656;57.746;11.780;2023-04-16T12:13:15;102339.72;;;17.08;41.48
57827;BME280;43656;57.746;11.780;2023-04-16T12:18:14;102340.56;;;17.08;41.72
57827;BME280;43656;57.746;11.780;2023-04-16T12:20:40;102344.81;;;17.31;41.66
57827;BME280;43656;57.746;11.780;2023-04-16T12:23:06;102347.28;;;17.06;42.49
57827;BME280;43656;57.746;11.780;2023-04-16T12:25:35;102345.53;;;16.91;43.08
57827;BME280;43656;57.746;11.780;2023-04-16T12:28:01;102341.75;;;16.86;43.66
57827;BME280;43656;57.746;11.780;2023-04-16T12:30:27;102325.94;;;16.61;43.44
57827;BME280;43656;57.746;11.780;2023-04-16T12:33:13;102336.44;;;16.71;43.43
57827;BME280;43656;57.746;11.780;2023-04-16T12:35:40;102337.22;;;16.65;43.44
57827;BME280;43656;57.746;11.780;2023-04-16T12:38:07;102337.63;;;16.62;44.44
57827;BME280;43656;57.746;11.780;2023-04-16T12:40:33;102329.09;;;16.72;44.24
57827;BME280;43656;57.746;11.780;2023-04-16T12:42:59;102332.94;;;16.77;44.69